Time;durP1;ratioP1;P1;durP2;ratioP2;P2;SDS_P1;SDS_P2;PMS_P1;PMS_P2;Temp;Humidity;BMP_temperature;BMP_pressure;BME280_temperature;BME280_humidity;BME280_pressure;Samples;Min_cycle;Max_cycle;Signal;HPM_P1;HPM_P2
2022/08/07 00:01:48;;;;;;;20.83;13.07;;;;;;;-145.69;100.00;71764.56;5014642;28;20251;-76
2022/08/07 00:04:15;;;;;;;20.60;14.20;;;;;;;-145.69;100.00;71756.59;5013735;28;20201;-75
2022/08/07 00:06:42;;;;;;;20.00;13.20;;;;;;;-145.69;100.00;71744.66;5014342;28;20288;-75
2022/08/07 00:09:08;;;;;;;20.50;13.40;;;;;;;-145.69;100.00;71740.69;5013963;28;20208;-76
2022/08/07 00:11:35;;;;;;;19.83;12.00;;;;;;;-145.69;100.00;71744.66;5013989;28;20212;-76
2022/08/07 00:14:02;;;;;;;17.07;11.37;;;;;;;-145.69;100.00;71744.66;5013891;28;20243;-76
2022/08/07 00:16:29;;;;;;;14.87;10.90;;;;;;;-145.69;100.00;71754.63;5014029;28;20560;-76
2022/08/07 00:18:56;;;;;;;16.57;11.37;;;;;;;-145.69;100.00;71764.56;5013927;28;20255;-76
2022/08/07 00:21:23;;;;;;;20.10;13.87;;;;;;;-145.69;100.00;71748.66;5013701;28;20201;-77
2022/08/07 00:23:49;;;;;;;22.87;14.40;;;;;;;-145.69;100.00;71754.63;5013847;28;20940;-76
2022/08/07 00:26:16;;;;;;;18.57;12.53;;;;;;;-145.69;100.00;71756.59;5013704;28;20563;-78
2022/08/07 00:28:43;;;;;;;19.05;12.80;;;;;;;-145.69;100.00;71760.59;5014161;28;20204;-76
2022/08/07 00:31:10;;;;;;;18.37;12.73;;;;;;;-145.69;100.00;71760.59;5013142;28;20220;-76
2022/08/07 00:33:40;;;;;;;18.27;11.80;;;;;;;-145.69;100.00;71762.56;5013783;28;20694;-77
2022/08/07 00:36:08;;;;;;;18.83;12.03;;;;;;;-145.69;100.00;71772.53;5013301;28;20201;-77
2022/08/07 00:38:36;;;;;;;19.67;12.57;;;;;;;-145.69;100.00;71786.47;5013174;28;20200;-76
2022/08/07 00:41:03;;;;;;;19.67;13.30;;;;;;;-145.69;100.00;71782.47;5013626;28;20280;-77
2022/08/07 00:43:30;;;;;;;21.20;13.13;;;;;;;-145.69;100.00;71790.44;5013740;28;20667;-77
2022/08/07 00:45:57;;;;;;;18.83;12.60;;;;;;;-145.69;100.00;71796.41;5013728;28;20201;-76
2022/08/07 00:48:24;;;;;;;21.63;12.47;;;;;;;-145.69;100.00;71812.31;5013739;28;20201;-76
2022/08/07 00:50:52;;;;;;;20.07;12.10;;;;;;;-145.69;100.00;71824.25;5013119;28;20197;-77
2022/08/07 00:53:19;;;;;;;21.87;13.73;;;;;;;-145.69;100.00;71828.25;5013061;28;20240;-76
2022/08/07 00:55:45;;;;;;;22.97;13.80;;;;;;;-145.69;100.00;71824.25;5013463;28;20676;-76
2022/08/07 00:58:12;;;;;;;22.10;15.40;;;;;;;-145.69;100.00;71820.28;5013718;28;20197;-77
2022/08/07 01:00:38;;;;;;;25.50;16.43;;;;;;;-145.69;100.00;71808.34;5013754;28;20204;-75
2022/08/07 01:03:05;;;;;;;22.50;15.63;;;;;;;-145.69;100.00;71804.38;5013323;28;20199;-76
2022/08/07 01:05:32;;;;;;;30.07;17.50;;;;;;;-145.69;100.00;71792.44;5013216;28;20259;-75
2022/08/07 01:08:00;;;;;;;31.60;16.73;;;;;;;-145.69;100.00;71788.44;5013354;28;20232;-76
2022/08/07 01:10:26;;;;;;;22.57;12.80;;;;;;;-145.69;100.00;71800.38;5013437;28;20201;-74
2022/08/07 01:12:53;;;;;;;25.57;15.60;;;;;;;-145.69;100.00;71796.41;5012973;28;20201;-75
2022/08/07 01:15:20;;;;;;;17.73;12.73;;;;;;;-145.69;100.00;71820.28;5013065;28;20228;-77
2022/08/07 01:17:46;;;;;;;22.13;11.67;;;;;;;-145.69;100.00;71834.22;5013009;28;20204;-77
2022/08/07 01:20:15;;;;;;;18.73;12.57;;;;;;;-145.69;100.00;71834.22;5013006;28;20200;-77
2022/08/07 01:22:44;;;;;;;19.83;12.83;;;;;;;-145.69;100.00;71836.22;5012720;28;20197;-76
2022/08/07 01:25:12;;;;;;;25.47;14.70;;;;;;;-145.69;100.00;71824.25;5013071;28;20204;-76
2022/08/07 01:27:39;;;;;;;20.10;12.47;;;;;;;-145.69;100.00;71836.22;5013292;28;20228;-76
2022/08/07 01:30:06;;;;;;;15.30;10.85;;;;;;;-145.69;100.00;71850.13;5014597;28;20200;-76
2022/08/07 01:32:33;;;;;;;17.47;11.83;;;;;;;-145.69;100.00;71852.13;5017015;28;20648;-77
2022/08/07 01:35:00;;;;;;;20.43;12.73;;;;;;;-145.69;100.00;71864.06;5016838;28;20232;-77
2022/08/07 01:37:27;;;;;;;22.43;14.53;;;;;;;-145.69;100.00;71860.09;5017183;28;20207;-78
2022/08/07 01:39:57;;;;;;;20.70;13.50;;;;;;;-145.69;100.00;71868.06;5016598;28;20204;-77
2022/08/07 01:42:25;;;;;;;19.67;13.27;;;;;;;-145.69;100.00;71872.03;5017027;28;20205;-77
2022/08/07 01:44:52;;;;;;;20.00;12.90;;;;;;;-145.69;100.00;71880.00;5016928;28;20205;-77
2022/08/07 01:47:18;;;;;;;27.83;17.03;;;;;;;-145.69;100.00;71856.09;5016912;28;20207;-76
2022/08/07 01:49:45;;;;;;;29.63;18.10;;;;;;;-145.69;100.00;71846.16;5016139;28;20197;-76
2022/08/07 01:52:13;;;;;;;32.50;18.57;;;;;;;-145.69;100.00;71842.19;5016941;28;20603;-77
2022/08/07 01:54:41;;;;;;;24.60;16.83;;;;;;;-145.69;100.00;71842.19;5016834;28;20639;-76
2022/08/07 01:57:13;;;;;;;27.07;17.87;;;;;;;-145.69;100.00;71850.13;5016780;28;20662;-76
2022/08/07 01:59:44;;;;;;;28.00;17.10;;;;;;;-145.69;100.00;71850.13;5016472;28;20205;-76
2022/08/07 02:02:16;;;;;;;26.73;15.87;;;;;;;-145.69;100.00;71854.13;5016185;28;20197;-76
2022/08/07 02:04:47;;;;;;;24.83;15.97;;;;;;;-145.69;100.00;71850.13;5016868;28;20239;-77
2022/08/07 02:07:16;;;;;;;24.97;14.63;;;;;;;-145.69;100.00;71854.13;5016356;28;20207;-76
2022/08/07 02:09:46;;;;;;;26.17;14.77;;;;;;;-145.69;100.00;71880.00;5016507;28;20208;-76
2022/08/07 02:12:19;;;;;;;21.50;13.87;;;;;;;-145.69;100.00;71895.91;5015907;28;20694;-76
2022/08/07 02:14:49;;;;;;;24.50;13.40;;;;;;;-145.69;100.00;71909.84;5016419;28;20232;-76
2022/08/07 02:17:17;;;;;;;25.77;14.03;;;;;;;-145.69;100.00;71911.84;5016275;28;20209;-77
2022/08/07 02:19:46;;;;;;;21.97;13.73;;;;;;;-145.69;100.00;71917.81;5016265;28;20228;-78
2022/08/07 02:22:14;;;;;;;28.17;14.43;;;;;;;-145.69;100.00;71923.78;5015969;28;20197;-76
2022/08/07 02:24:43;;;;;;;21.73;14.37;;;;;;;-145.69;100.00;71931.72;5016292;28;20208;-76
2022/08/07 02:27:10;;;;;;;21.07;14.60;;;;;;;-145.69;100.00;71939.69;5015765;28;20235;-77
2022/08/07 02:29:40;;;;;;;27.50;16.77;;;;;;;-145.69;100.00;71917.81;5016371;28;20204;-77
2022/08/07 02:32:09;;;;;;;27.23;15.67;;;;;;;-145.69;100.00;71923.78;5015817;28;20602;-77
2022/08/07 02:34:37;;;;;;;22.17;14.73;;;;;;;-145.69;100.00;71927.75;5015743;28;20436;-76
2022/08/07 02:37:07;;;;;;;20.37;13.47;;;;;;;-145.69;100.00;71943.69;5015954;28;20291;-76
2022/08/07 02:39:35;;;;;;;20.27;13.93;;;;;;;-145.69;100.00;71963.56;5015806;28;20751;-76
2022/08/07 02:42:03;;;;;;;19.13;13.50;;;;;;;-145.69;100.00;71967.56;5015190;28;20663;-78
2022/08/07 02:44:30;;;;;;;22.30;15.03;;;;;;;-145.69;100.00;71971.53;5015843;28;20209;-75
2022/08/07 02:46:59;;;;;;;30.95;18.23;;;;;;;-145.69;100.00;71973.53;5015516;28;20443;-76
2022/08/07 02:49:26;;;;;;;30.67;17.37;;;;;;;-145.69;100.00;71959.59;5015927;28;20208;-76
2022/08/07 02:51:56;;;;;;;33.70;17.63;;;;;;;-145.69;100.00;71943.69;5015602;28;20598;-77
2022/08/07 02:54:25;;;;;;;28.07;16.47;;;;;;;-145.69;100.00;71937.69;5015476;28;20278;-76
2022/08/07 02:56:53;;;;;;;26.93;15.83;;;;;;;-145.69;100.00;71957.59;5015480;28;20204;-77
2022/08/07 02:59:24;;;;;;;28.43;17.50;;;;;;;-145.69;100.00;71951.63;5015650;28;20204;-76
2022/08/07 03:01:51;;;;;;;29.43;17.70;;;;;;;-145.69;100.00;71945.66;5015316;28;20212;-77
2022/08/07 03:04:20;;;;;;;35.30;19.10;;;;;;;-145.69;100.00;71923.78;5015473;28;20251;-77
2022/08/07 03:06:48;;;;;;;36.57;18.80;;;;;;;-145.69;100.00;71927.75;5015184;28;20207;-76
2022/08/07 03:09:17;;;;;;;34.10;19.00;;;;;;;-145.69;100.00;71919.78;5015511;28;20201;-78
2022/08/07 03:11:44;;;;;;;34.63;18.77;;;;;;;-145.69;100.00;71935.72;5014914;28;20674;-78
2022/08/07 03:14:12;;;;;;;39.73;21.33;;;;;;;-145.69;100.00;71903.88;5015251;28;20236;-76
2022/08/07 03:16:40;;;;;;;36.40;18.50;;;;;;;-145.69;100.00;71915.81;5015294;28;20201;-77
2022/08/07 03:19:07;;;;;;;31.50;17.80;;;;;;;-145.69;100.00;71935.72;5015065;28;20292;-76
2022/08/07 03:21:36;;;;;;;28.10;18.33;;;;;;;-145.69;100.00;71931.72;5014522;28;20666;-76
2022/08/07 03:24:02;;;;;;;26.47;16.00;;;;;;;-145.69;100.00;71953.63;5015393;28;20207;-76
2022/08/07 03:26:32;;;;;;;35.57;19.97;;;;;;;-145.69;100.00;71933.72;5014811;28;20205;-76
2022/08/07 03:29:01;;;;;;;38.57;20.40;;;;;;;-145.69;100.00;71939.69;5015095;28;20204;-76
2022/08/07 03:31:29;;;;;;;34.03;18.97;;;;;;;-145.69;100.00;71947.66;5014884;28;20280;-76
2022/08/07 03:33:59;;;;;;;35.53;19.50;;;;;;;-145.69;100.00;71955.63;5014610;28;20209;-78
2022/08/07 03:36:27;;;;;;;29.70;17.90;;;;;;;-145.69;100.00;71969.53;5014676;28;20583;-77
2022/08/07 03:38:59;;;;;;;28.17;17.93;;;;;;;-145.69;100.00;71975.50;5014433;28;20205;-77
2022/08/07 03:41:26;;;;;;;31.47;18.40;;;;;;;-145.69;100.00;71971.53;5014515;28;20651;-78
2022/08/07 03:43:54;;;;;;;30.43;18.00;;;;;;;-145.69;100.00;71969.53;5014787;28;20548;-77
2022/08/07 03:46:22;;;;;;;30.27;18.97;;;;;;;-145.69;100.00;71959.59;5014476;28;20235;-77
2022/08/07 03:48:49;;;;;;;30.30;17.70;;;;;;;-145.69;100.00;71971.53;5014835;28;20219;-78
2022/08/07 03:51:16;;;;;;;32.87;18.93;;;;;;;-145.69;100.00;71975.50;5014319;28;20595;-76
2022/08/07 03:53:42;;;;;;;31.17;18.10;;;;;;;-145.69;100.00;71979.50;5014144;28;20205;-76
2022/08/07 03:56:10;;;;;;;31.57;19.23;;;;;;;-145.69;100.00;71975.50;5014287;28;20235;-77
2022/08/07 03:58:38;;;;;;;31.83;18.10;;;;;;;-145.69;100.00;71961.59;5014389;28;20208;-76
2022/08/07 04:01:06;;;;;;;30.17;16.97;;;;;;;-145.69;100.00;71971.53;5014292;28;20559;-77
2022/08/07 04:03:32;;;;;;;29.77;17.80;;;;;;;-145.69;100.00;71981.50;5014610;28;20243;-76
2022/08/07 04:05:59;;;;;;;30.27;17.97;;;;;;;-145.69;100.00;71995.41;5014463;28;20201;-76
2022/08/07 04:08:26;;;;;;;32.67;17.77;;;;;;;-145.69;100.00;71993.44;5014349;28;20204;-77
2022/08/07 04:10:53;;;;;;;30.13;17.87;;;;;;;-145.69;100.00;72013.31;5014091;28;20197;-77
2022/08/07 04:13:22;;;;;;;27.03;16.30;;;;;;;-145.69;100.00;72019.31;5013754;28;20208;-77
2022/08/07 04:15:49;;;;;;;30.07;18.17;;;;;;;-145.69;100.00;72003.38;5014156;28;20239;-77
2022/08/07 04:18:16;;;;;;;34.70;18.97;;;;;;;-145.69;100.00;72007.34;5013955;28;20587;-79
2022/08/07 04:20:43;;;;;;;32.00;17.50;;;;;;;-145.69;100.00;72015.31;5013874;28;20228;-78
2022/08/07 04:23:10;;;;;;;34.40;18.13;;;;;;;-145.69;100.00;72017.31;5014164;28;20250;-76
2022/08/07 04:25:38;;;;;;;35.53;18.77;;;;;;;-145.69;100.00;72019.31;5014251;28;20243;-77
2022/08/07 04:28:05;;;;;;;37.23;21.43;;;;;;;-145.69;100.00;71997.41;5014160;28;20240;-78
2022/08/07 04:30:33;;;;;;;43.20;21.83;;;;;;;-145.69;100.00;71981.50;5013817;28;20201;-78
2022/08/07 04:33:00;;;;;;;45.63;23.40;;;;;;;-145.69;100.00;71967.56;5013896;28;20201;-77
2022/08/07 04:35:27;;;;;;;44.97;26.97;;;;;;;-145.69;100.00;71959.59;5013370;28;20935;-77
2022/08/07 04:37:54;;;;;;;40.87;23.33;;;;;;;-145.69;100.00;71961.59;5013914;28;20795;-77
2022/08/07 04:40:20;;;;;;;37.57;22.03;;;;;;;-145.69;100.00;71961.59;5013750;28;20211;-77
2022/08/07 04:42:47;;;;;;;34.17;20.43;;;;;;;-145.69;100.00;71959.59;5013391;28;20647;-78
2022/08/07 04:45:13;;;;;;;35.00;20.07;;;;;;;-145.69;100.00;71953.63;5013728;28;20678;-76
2022/08/07 04:47:52;;;;;;;34.50;20.10;;;;;;;-145.69;100.00;71953.63;5013651;28;20204;-78
2022/08/07 04:50:28;;;;;;;34.70;19.80;;;;;;;-145.69;100.00;71943.69;5013504;28;20215;-76
2022/08/07 04:53:03;;;;;;;31.90;19.47;;;;;;;-145.69;100.00;71929.75;5013138;28;20247;-77
2022/08/07 04:55:34;;;;;;;31.10;19.33;;;;;;;-145.69;100.00;71917.81;5013371;28;20228;-77
2022/08/07 04:58:10;;;;;;;38.10;21.67;;;;;;;-145.69;100.00;71907.84;5013517;28;20216;-75
2022/08/07 05:00:40;;;;;;;31.10;19.37;;;;;;;-145.69;100.00;71903.88;5013260;28;20200;-76
2022/08/07 05:03:20;;;;;;;31.57;18.17;;;;;;;-145.69;100.00;71907.84;5012190;28;20682;-76
2022/08/07 05:05:53;;;;;;;31.20;17.63;;;;;;;-145.69;100.00;71901.88;5012866;28;20201;-77
2022/08/07 05:08:24;;;;;;;29.27;18.00;;;;;;;-145.69;100.00;71905.88;5013183;28;20250;-76
2022/08/07 05:10:55;;;;;;;27.00;17.67;;;;;;;-145.69;100.00;71911.84;5012971;28;20288;-76
2022/08/07 05:13:35;;;;;;;30.03;18.13;;;;;;;-145.69;100.00;71915.81;5013535;28;20204;-76
2022/08/07 05:16:04;;;;;;;34.57;18.07;;;;;;;-145.69;100.00;71919.78;5013034;28;20224;-76
2022/08/07 05:18:35;;;;;;;28.17;17.93;;;;;;;-145.69;100.00;71913.81;5012432;28;20233;-76
2022/08/07 05:21:04;;;;;;;31.13;19.10;;;;;;;-145.69;100.00;71923.78;5012989;28;20652;-76
2022/08/07 05:23:36;;;;;;;42.37;21.43;;;;;;;-145.69;100.00;71876.00;5013169;28;20567;-76
2022/08/07 05:26:04;;;;;;;38.93;21.07;;;;;;;-145.69;100.00;71852.13;5013141;28;20231;-76
2022/08/07 05:28:34;;;;;;;35.10;20.37;;;;;;;-145.69;100.00;71872.03;5012900;28;20675;-76
2022/08/07 05:31:02;;;;;;;28.60;18.40;;;;;;;-145.69;100.00;71870.03;5013062;28;20200;-76
2022/08/07 05:33:30;;;;;;;37.10;18.23;;;;;;;-145.69;100.00;71820.28;5013252;28;20678;-75
2022/08/07 05:35:58;;;;;;;27.30;16.60;;;;;;;-145.69;100.00;71836.22;5012903;28;20235;-75
2022/08/07 05:38:26;;;;;;;30.20;16.03;;;;;;;-145.69;100.00;71812.31;5012787;28;20216;-76
2022/08/07 05:40:53;;;;;;;27.87;16.23;;;;;;;-145.69;100.00;71748.66;5012714;28;20262;-75
2022/08/07 05:43:20;;;;;;;22.60;14.07;;;;;;;-145.69;100.00;71750.63;5013034;28;20201;-78
2022/08/07 05:45:49;;;;;;;23.97;13.53;;;;;;;-145.69;100.00;71718.78;5012997;28;20205;-76
2022/08/07 05:48:16;;;;;;;15.98;11.30;;;;;;;-145.69;100.00;71744.66;5012525;28;20854;-75
2022/08/07 05:50:43;;;;;;;16.07;11.07;;;;;;;-145.69;100.00;71782.47;5012821;28;20201;-75
2022/08/07 05:53:11;;;;;;;16.55;10.52;;;;;;;-145.69;100.00;71736.72;5012840;28;20200;-76
2022/08/07 05:55:40;;;;;;;15.33;10.97;;;;;;;-145.69;100.00;71736.72;5012632;28;20232;-77
2022/08/07 05:58:07;;;;;;;15.00;10.20;;;;;;;-145.69;100.00;71704.88;5013051;28;20200;-76
2022/08/07 06:00:35;;;;;;;14.75;9.18;;;;;;;-145.69;100.00;71641.19;5013142;28;20205;-76
2022/08/07 06:03:05;;;;;;;13.87;8.40;;;;;;;-145.69;100.00;71619.28;5012529;28;20228;-77
2022/08/07 06:05:32;;;;;;;13.50;8.00;;;;;;;-145.69;100.00;71601.38;5012831;28;20235;-77
2022/08/07 06:08:00;;;;;;;12.93;7.90;;;;;;;-145.69;100.00;71581.50;5012602;28;20232;-76
2022/08/07 06:10:28;;;;;;;9.85;6.43;;;;;;;-145.69;100.00;71573.53;5012797;28;20295;-76
2022/08/07 06:12:55;;;;;;;10.27;6.88;;;;;;;-145.69;100.00;71567.56;5012405;28;20981;-77
2022/08/07 06:15:23;;;;;;;10.75;6.20;;;;;;;-145.69;100.00;71561.59;5012729;28;20761;-77
2022/08/07 06:17:50;;;;;;;8.20;6.22;;;;;;;-145.69;100.00;71553.63;5016065;28;20255;-76
2022/08/07 06:20:18;;;;;;;8.13;5.32;;;;;;;-145.69;100.00;71535.72;5017011;28;20197;-76
2022/08/07 06:22:46;;;;;;;7.43;5.20;;;;;;;-145.69;100.00;71533.72;5016177;28;20201;-77
2022/08/07 06:25:13;;;;;;;7.15;4.85;;;;;;;-145.69;100.00;71517.81;5016467;28;20207;-81
2022/08/07 06:27:41;;;;;;;8.57;4.47;;;;;;;-145.69;100.00;71501.88;5016135;28;20204;-77
2022/08/07 06:30:08;;;;;;;5.75;4.22;;;;;;;-145.69;100.00;71493.94;5015790;28;20663;-76
2022/08/07 06:32:35;;;;;;;6.75;4.57;;;;;;;-145.69;100.00;71489.94;5015837;28;20201;-76
2022/08/07 06:35:01;;;;;;;7.32;4.00;;;;;;;-145.69;100.00;71470.06;5016308;28;20254;-76
2022/08/07 06:37:28;;;;;;;8.02;4.00;;;;;;;-145.69;100.00;71458.09;5016241;28;20208;-76
2022/08/07 06:39:54;;;;;;;7.50;4.00;;;;;;;-145.69;100.00;71446.16;5015855;28;20197;-78
2022/08/07 06:42:25;;;;;;;6.43;3.83;;;;;;;-145.69;100.00;71440.19;5015949;28;20196;-76
2022/08/07 06:44:56;;;;;;;9.23;4.00;;;;;;;-145.69;100.00;71444.19;5015864;28;20207;-76
2022/08/07 06:47:23;;;;;;;5.18;3.65;;;;;;;-145.69;100.00;71432.25;5015830;28;20196;-79
2022/08/07 06:49:50;;;;;;;4.30;3.08;;;;;;;-145.69;100.00;71438.22;5015782;28;20193;-77
2022/08/07 06:52:17;;;;;;;8.05;3.50;;;;;;;-145.69;100.00;71430.25;5015124;28;20203;-76
2022/08/07 06:54:46;;;;;;;4.60;3.53;;;;;;;-145.69;100.00;71426.28;5015625;28;20208;-76
2022/08/07 06:57:12;;;;;;;7.50;3.33;;;;;;;-145.69;100.00;71414.34;5015551;28;20229;-75
2022/08/07 06:59:41;;;;;;;8.32;3.05;;;;;;;-145.69;100.00;71414.34;5015063;28;20231;-76
2022/08/07 07:02:19;;;;;;;4.38;2.90;;;;;;;-145.69;100.00;71412.34;5014978;28;20224;-78
2022/08/07 07:04:47;;;;;;;7.03;3.10;;;;;;;-145.69;100.00;71402.41;5015326;28;20200;-78
2022/08/07 07:07:14;;;;;;;3.65;2.88;;;;;;;-145.69;100.00;71406.38;5015582;28;20204;-77
2022/08/07 07:09:45;;;;;;;5.35;2.80;;;;;;;-145.69;100.00;71402.41;5015154;28;20204;-76
2022/08/07 07:12:22;;;;;;;3.75;2.70;;;;;;;-145.69;100.00;71390.47;5015516;28;20324;-77
2022/08/07 07:14:52;;;;;;;5.18;2.63;;;;;;;-145.69;100.00;71376.53;5013230;28;20205;-76
2022/08/07 07:17:26;;;;;;;3.33;2.75;;;;;;;-145.69;99.63;71378.50;5015135;28;20232;-76
2022/08/07 07:19:55;;;;;;;5.70;3.10;;;;;;;-145.69;98.51;71358.63;5015140;28;20231;-76
2022/08/07 07:22:23;;;;;;;4.43;2.65;;;;;;;-145.69;97.85;71346.69;5015266;28;20559;-75
2022/08/07 07:24:50;;;;;;;5.55;2.50;;;;;;;-145.69;95.97;71340.72;5015098;28;20207;-75
2022/08/07 07:27:21;;;;;;;3.22;2.50;;;;;;;-145.69;95.51;71324.78;5014317;28;20205;-75
2022/08/07 07:29:51;;;;;;;4.10;2.40;;;;;;;-145.69;95.30;71306.88;5014986;28;20250;-78
2022/08/07 07:32:21;;;;;;;4.00;2.65;;;;;;;-145.69;94.59;71294.94;5014877;28;20205;-77
2022/08/07 07:34:55;;;;;;;3.35;2.13;;;;;;;-145.69;92.75;71283.00;5014752;28;20208;-78
2022/08/07 07:37:24;;;;;;;3.50;2.10;;;;;;;-145.69;90.62;71285.00;5014638;28;20235;-76
2022/08/07 07:39:55;;;;;;;4.65;2.30;;;;;;;-145.69;91.62;71275.03;5014387;28;20312;-76
2022/08/07 07:42:25;;;;;;;2.40;2.20;;;;;;;-145.69;91.14;71259.13;5015064;28;20291;-76
2022/08/07 07:44:53;;;;;;;5.90;1.90;;;;;;;-145.69;90.57;71257.13;5015176;28;20231;-76
2022/08/07 07:47:22;;;;;;;2.88;1.90;;;;;;;-145.69;91.48;71229.28;5014489;28;20232;-75
2022/08/07 07:49:52;;;;;;;2.47;1.83;;;;;;;-145.69;88.43;71225.31;5014416;28;20201;-77
2022/08/07 07:52:21;;;;;;;4.47;1.90;;;;;;;-145.69;90.79;71209.38;5014478;28;20201;-76
2022/08/07 07:54:49;;;;;;;6.50;1.95;;;;;;;-145.69;86.77;71207.38;5014716;28;20200;-76
2022/08/07 07:57:19;;;;;;;1.70;1.60;;;;;;;-145.69;88.03;71211.38;5014628;28;20237;-76
2022/08/07 07:59:48;;;;;;;6.93;2.10;;;;;;;-145.69;85.99;71195.47;5014382;28;20287;-75
2022/08/07 08:02:16;;;;;;;2.88;1.92;;;;;;;-145.69;86.31;71197.44;5011920;28;20201;-77
2022/08/07 08:04:44;;;;;;;2.75;1.73;;;;;;;-145.69;84.04;71179.53;5014215;28;20670;-77
2022/08/07 08:07:13;;;;;;;3.25;2.10;;;;;;;-145.69;82.79;71171.56;5014451;28;20263;-77
2022/08/07 08:09:42;;;;;;;3.63;1.98;;;;;;;-145.69;83.14;71137.75;5014158;28;20211;-77
2022/08/07 08:12:09;;;;;;;10.60;2.22;;;;;;;-145.69;83.01;71167.59;4994419;28;20197;-77
2022/08/07 08:14:36;;;;;;;1.90;1.67;;;;;;;-145.69;81.52;71171.56;4994737;28;20205;-76
2022/08/07 08:17:04;;;;;;;2.85;1.70;;;;;;;-145.69;79.73;71157.66;4994497;28;20232;-76
2022/08/07 08:19:33;;;;;;;3.55;1.88;;;;;;;-145.69;82.72;71129.78;4994408;28;20234;-76
2022/08/07 08:27:38;;;;;;;4.03;1.60;;;;;;;-145.69;78.62;71074.09;5014169;28;20395;-76
2022/08/07 08:30:08;;;;;;;2.83;1.70;;;;;;;-145.69;76.64;71056.16;5013790;28;20189;-77
2022/08/07 08:32:40;;;;;;;4.32;1.77;;;;;;;-145.69;76.21;71024.34;5014396;28;20200;-76
2022/08/07 08:35:09;;;;;;;3.80;1.38;;;;;;;-145.69;73.64;71012.41;5013427;28;20212;-75
2022/08/07 08:37:37;;;;;;;3.30;1.27;;;;;;;-145.69;72.83;71002.44;5014027;28;20224;-76
2022/08/07 08:40:13;;;;;;;3.97;1.55;;;;;;;-145.69;75.82;70976.59;5013398;28;20267;-76
2022/08/07 08:42:43;;;;;;;3.58;1.50;;;;;;;-145.69;75.89;70962.66;5014064;28;20208;-75
2022/08/07 08:45:14;;;;;;;4.57;1.48;;;;;;;-145.69;72.56;70968.63;5013152;28;20189;-76
2022/08/07 08:47:54;;;;;;;2.38;1.55;;;;;;;-145.69;70.44;70964.66;5013791;28;20671;-75
2022/08/07 08:50:22;;;;;;;2.20;1.45;;;;;;;-145.69;72.27;70964.66;5013551;28;20211;-76
2022/08/07 08:52:53;;;;;;;2.65;1.40;;;;;;;-145.69;76.02;70936.78;5012866;28;20207;-76
2022/08/07 08:55:27;;;;;;;2.25;1.40;;;;;;;-145.69;70.21;70934.81;5013536;28;20200;-75
2022/08/07 08:58:00;;;;;;;1.50;1.02;;;;;;;-145.69;66.79;70940.78;5013523;28;20238;-76
2022/08/07 09:00:32;;;;;;;3.50;1.60;;;;;;;-145.69;69.96;70966.63;5012786;28;20652;-75
2022/08/07 09:03:02;;;;;;;1.50;1.40;;;;;;;-145.69;67.28;70948.72;5012915;28;20201;-75
2022/08/07 09:05:40;;;;;;;2.72;1.60;;;;;;;-145.69;65.70;70944.75;5013313;28;20212;-80
2022/08/07 09:08:30;;;;;;;4.13;1.75;;;;;;;-145.69;66.43;70916.91;5013589;28;20509;-77
2022/08/07 09:11:10;;;;;;;1.50;1.38;;;;;;;-145.69;64.93;70889.03;5012950;28;20200;-77
2022/08/07 09:13:43;;;;;;;3.05;1.27;;;;;;;-145.69;64.97;70865.16;5013606;28;20204;-76
2022/08/07 09:16:17;;;;;;;2.83;1.50;;;;;;;-145.69;62.30;70885.06;5012753;28;20691;-76
2022/08/07 09:19:02;;;;;;;3.60;1.50;;;;;;;-145.69;63.42;70877.09;5013363;28;20235;-76
2022/08/07 09:21:35;;;;;;;2.13;1.20;;;;;;;-145.69;61.29;70889.03;5012912;28;20200;-77
2022/08/07 09:24:12;;;;;;;1.48;1.23;;;;;;;-145.69;63.90;70912.91;5013089;28;20211;-76
2022/08/07 09:26:46;;;;;;;1.48;1.00;;;;;;;-145.69;62.42;70897.00;5013301;28;20219;-76
2022/08/07 09:29:22;;;;;;;3.40;1.20;;;;;;;-145.69;62.21;70881.09;5012827;28;20654;-78
2022/08/07 09:32:00;;;;;;;3.08;1.08;;;;;;;-145.69;61.86;70861.19;5004413;28;20205;-78
2022/08/07 09:34:37;;;;;;;2.67;1.10;;;;;;;-145.69;61.58;70863.19;5007044;28;20205;-75
2022/08/07 09:37:11;;;;;;;2.78;1.13;;;;;;;-145.69;59.87;70841.28;5013213;28;20235;-77
2022/08/07 09:39:49;;;;;;;3.28;1.50;;;;;;;-145.69;58.58;70825.38;5012882;28;20197;-81
2022/08/07 09:42:33;;;;;;;2.05;1.10;;;;;;;-145.69;59.79;70829.34;5013272;28;20205;-81
2022/08/07 09:45:10;;;;;;;2.13;1.02;;;;;;;-145.69;56.88;70839.31;5013052;28;20200;-78
2022/08/07 09:47:46;;;;;;;4.00;1.35;;;;;;;-145.69;58.45;70825.38;5013271;28;20198;-77
2022/08/07 09:50:24;;;;;;;3.78;1.00;;;;;;;-145.69;57.64;70837.31;5012620;28;20396;-78
2022/08/07 09:52:57;;;;;;;1.70;1.10;;;;;;;-145.69;57.95;70829.34;5016735;28;20196;-78
2022/08/07 09:55:29;;;;;;;2.65;1.00;;;;;;;-145.69;59.09;70831.34;5017116;28;20208;-80
2022/08/07 09:58:20;;;;;;;3.30;1.05;;;;;;;-145.69;58.19;70865.16;5013053;28;20667;-79
2022/08/07 10:01:02;;;;;;;1.10;0.90;;;;;;;-145.69;55.23;70841.28;5016651;28;20283;-76
2022/08/07 10:03:46;;;;;;;2.33;1.05;;;;;;;-145.69;54.85;70839.31;5016723;28;20583;-78
2022/08/07 10:06:57;;;;;;;2.88;1.00;;;;;;;-145.69;56.90;70847.25;5017146;28;20209;-80
2022/08/07 10:09:54;;;;;;;1.35;0.80;;;;;;;-145.69;53.82;70845.28;4980910;28;20247;-76
2022/08/07 10:12:40;;;;;;;1.55;1.23;;;;;;;-145.69;57.03;70845.28;5002098;28;20219;-78
2022/08/07 10:15:32;;;;;;;2.10;1.10;;;;;;;-145.69;54.40;70841.28;5016676;28;20224;-80
2022/08/07 10:18:28;;;;;;;2.97;1.10;;;;;;;-145.69;55.70;70801.50;5014393;28;20259;-76
2022/08/07 10:21:09;;;;;;;1.23;1.00;;;;;;;-145.69;55.40;70789.56;5003690;28;20201;-75
2022/08/07 10:24:04;;;;;;;3.20;0.93;;;;;;;-145.69;55.77;70787.56;5015204;28;20940;-75
2022/08/07 10:26:41;;;;;;;1.63;1.20;;;;;;;-145.69;52.72;70809.47;5016204;28;20208;-80
2022/08/07 10:29:22;;;;;;;1.80;0.90;;;;;;;-145.69;57.04;70755.75;5015918;28;20197;-79
2022/08/07 10:31:59;;;;;;;1.70;1.10;;;;;;;-145.69;51.73;70749.78;5016201;28;20204;-76
2022/08/07 10:34:44;;;;;;;2.45;1.00;;;;;;;-145.69;50.47;70745.78;5015957;28;20598;-76
2022/08/07 10:37:27;;;;;;;1.42;1.08;;;;;;;-145.69;54.72;70735.84;5016075;28;20232;-78
2022/08/07 10:40:02;;;;;;;5.97;1.00;;;;;;;-145.69;50.63;70717.94;5015863;28;20208;-80
2022/08/07 10:42:36;;;;;;;4.65;1.15;;;;;;;-145.69;51.88;70713.97;5016023;28;20539;-80
2022/08/07 10:45:15;;;;;;;1.60;0.88;;;;;;;-145.69;51.87;70725.91;5015737;28;20664;-79
2022/08/07 10:47:51;;;;;;;3.47;1.02;;;;;;;-145.69;51.03;70741.81;5015979;28;20215;-79
2022/08/07 10:50:22;;;;;;;1.65;1.00;;;;;;;-145.69;52.24;70709.97;5015418;28;20251;-79
2022/08/07 10:52:59;;;;;;;0.90;0.90;;;;;;;-145.69;50.00;70706.00;5016028;28;20235;-78
2022/08/07 10:55:29;;;;;;;0.88;0.75;;;;;;;-145.69;50.16;70729.88;5015640;28;20677;-78
2022/08/07 10:58:10;;;;;;;2.75;1.15;;;;;;;-145.69;51.10;70706.00;5014912;28;20228;-78
2022/08/07 11:00:45;;;;;;;2.35;0.90;;;;;;;-145.69;50.85;70662.22;5015325;28;20216;-76
2022/08/07 11:03:19;;;;;;;3.10;0.80;;;;;;;-145.69;48.18;70706.00;5014234;28;20201;-77
2022/08/07 11:05:54;;;;;;;3.28;1.00;;;;;;;-145.69;50.13;70674.16;5015717;28;20204;-77
2022/08/07 11:08:32;;;;;;;2.15;0.90;;;;;;;-145.69;50.34;70658.25;5015557;28;20266;-77
2022/08/07 11:11:03;;;;;;;1.55;0.88;;;;;;;-145.69;47.70;70658.25;5015323;28;20207;-78
2022/08/07 11:13:34;;;;;;;1.23;0.88;;;;;;;-145.69;47.68;70664.22;5015448;28;20607;-77
2022/08/07 11:16:08;;;;;;;0.63;0.63;;;;;;;-145.69;46.85;70660.25;5015074;28;20197;-75
2022/08/07 11:18:42;;;;;;;2.03;0.95;;;;;;;-145.69;48.97;70654.28;5014734;28;20228;-77
2022/08/07 11:21:18;;;;;;;1.02;0.93;;;;;;;-145.69;48.35;70652.28;5015128;28;20666;-76
2022/08/07 11:23:52;;;;;;;1.92;0.90;;;;;;;-145.69;48.95;70666.22;5015117;28;20213;-76
2022/08/07 11:26:26;;;;;;;0.80;0.80;;;;;;;-145.69;47.03;70662.22;5015186;28;20204;-77